Stations météo

Publicité
Dunstaffnage, Grande-Bretagne (99006): Température de l'air & dewpoint: 20.09.2017 12:00:00 - 26.09.2017 12:00:00 (BST)Dunstaffnage, Grande-Bretagne (99006): Température de l'air -20cm: 20.09.2017 12:00:00 - 26.09.2017 12:00:00 (BST)Dunstaffnage, Grande-Bretagne (99006): Vitesse du vent & gusts: 20.09.2017 12:00:00 - 26.09.2017 12:00:00 (BST)Dunstaffnage, Grande-Bretagne (99006): Direction du vent: 20.09.2017 12:00:00 - 26.09.2017 12:00:00 (BST)Dunstaffnage, Grande-Bretagne (99006): Quantités de précipitations: 20.09.2017 12:00:00 - 26.09.2017 12:00:00 (BST)
Date & Time tt [°C] td [°C] tt -20cm [°C] ff [km/h] ff [knt] fx [km/h] fx [knt] dd rr [mm]
26.09.2017 12:00:00 - - - - - - - - -
26.09.2017 11:00:00 16,8 11,9 - 13 7 - - SE 0,0
26.09.2017 10:00:00 15,8 12,4 13,2 13 7 - - ESE 0,0
26.09.2017 09:00:00 11,1 11,1 - 2 1 - - WSW 0,0
26.09.2017 08:00:00 8,8 8,6 - 4 2 - - SSW 0,0
26.09.2017 07:00:00 9,3 8,8 - 4 2 - - SW 0,0
26.09.2017 06:00:00 9,0 8,9 - 4 2 - - SE 0,0
26.09.2017 05:00:00 10,0 9,9 - 5 3 - - SSE 0,0
26.09.2017 04:00:00 9,1 8,9 - 4 2 - - SSW 0,2
26.09.2017 03:00:00 10,0 9,9 - 4 2 - - S 0,0
26.09.2017 02:00:00 10,8 10,8 - 5 3 - - ESE 0,0
26.09.2017 01:00:00 10,9 10,9 - 4 2 - - SW 0,0
26.09.2017 00:00:00 9,4 9,2 - 2 1 - - S 0,0
25.09.2017 23:00:00 9,8 9,6 - 2 1 - - SW 0,0
25.09.2017 22:00:00 10,6 10,4 - 2 1 - - S 0,0
25.09.2017 21:00:00 10,5 10,0 - 2 1 - - W 0,0
25.09.2017 20:00:00 11,7 11,2 - 4 2 - - SW 0,0
25.09.2017 19:00:00 12,9 12,1 - 9 5 - - E 0,0
25.09.2017 18:00:00 15,2 12,9 - 5 3 - - WSW 0,0
25.09.2017 17:00:00 17,5 14,1 - 15 8 - - WSW 0,0
25.09.2017 16:00:00 17,7 14,6 - 9 5 - - W 0,0
25.09.2017 15:00:00 16,1 14,4 - 9 5 - - WSW 0,0
25.09.2017 14:00:00 15,0 14,2 - 9 5 - - WNW 0,0
25.09.2017 13:00:00 13,6 12,4 - 5 3 - - W 0,0
25.09.2017 12:00:00 13,7 13,3 - 2 1 - - NW 0,0
25.09.2017 11:00:00 12,9 12,8 - 2 1 - - WNW 0,0
25.09.2017 10:00:00 12,9 12,9 13,2 4 2 - - WSW 0,0
25.09.2017 09:00:00 11,8 11,8 - 2 1 - - SE 0,0
25.09.2017 08:00:00 10,6 10,4 - 2 1 - - SSW 0,0
25.09.2017 07:00:00 11,8 11,7 - 2 1 - - SW 0,0
25.09.2017 06:00:00 11,8 11,7 - 2 1 - - SW 0,0
25.09.2017 05:00:00 11,5 11,4 - 2 1 - - SSW 0,0
25.09.2017 04:00:00 11,3 11,2 - 2 1 - - WSW 0,0
25.09.2017 03:00:00 11,3 11,1 - 2 1 - - NE 0,0
25.09.2017 02:00:00 11,7 11,4 - 2 1 - - SSW 0,0
25.09.2017 01:00:00 11,8 11,6 - 4 2 - - SSW 0,0
25.09.2017 00:00:00 12,2 11,9 - 4 2 - - WNW 0,0
24.09.2017 23:00:00 12,6 12,2 - 5 3 - - E 0,0
24.09.2017 22:00:00 13,1 12,6 - 9 5 - - E 0,0
24.09.2017 21:00:00 13,2 12,7 - 5 3 - - NNE 0,0
24.09.2017 20:00:00 13,4 12,9 - 5 3 - - E 0,0
24.09.2017 19:00:00 13,7 12,9 - 8 4 - - E 0,0
24.09.2017 18:00:00 14,5 13,2 - 9 5 - - ESE 0,0
24.09.2017 17:00:00 14,8 13,1 - 9 5 - - ENE 0,0
24.09.2017 16:00:00 15,1 13,3 - 4 2 - - E 0,0
24.09.2017 15:00:00 14,4 13,9 - 8 4 - - E 1,0
24.09.2017 14:00:00 13,7 13,2 - 8 4 - - SW 1,0
24.09.2017 13:00:00 13,9 13,1 - 8 4 - - SW 1,8
24.09.2017 12:00:00 14,5 12,3 - 8 4 - - SE 0,0
24.09.2017 11:00:00 15,2 12,8 - 9 5 - - SE 0,0
24.09.2017 10:00:00 14,4 12,4 13,0 11 6 - - ESE 0,0
24.09.2017 09:00:00 13,9 12,4 - 8 4 - - ESE 0,0
24.09.2017 08:00:00 13,5 12,5 - 13 7 - - ESE 0,0
24.09.2017 07:00:00 13,5 12,3 - 9 5 - - SSE 0,6
24.09.2017 06:00:00 13,5 12,3 - 11 6 - - SSE 0,2
24.09.2017 05:00:00 13,2 12,2 - 13 7 - - SSE 0,4
24.09.2017 04:00:00 13,3 11,8 - 9 5 - - SE 0,0
24.09.2017 03:00:00 13,2 11,7 - 11 6 - - SSE 0,6
24.09.2017 02:00:00 13,2 11,8 - 8 4 - - SE 0,8
24.09.2017 01:00:00 14,5 10,8 - 18 10 - - S 0,2
24.09.2017 00:00:00 15,8 9,7 - 11 6 - - SE 0,0
23.09.2017 23:00:00 15,6 9,1 - 18 10 - - ESE 0,0
23.09.2017 22:00:00 15,4 8,7 - 15 8 - - SE 0,0
23.09.2017 21:00:00 15,6 9,4 - 13 7 - - SSE 0,0
23.09.2017 20:00:00 15,5 10,2 - 11 6 - - S 0,0
23.09.2017 19:00:00 15,9 10,3 - 15 8 - - SE 0,0
23.09.2017 18:00:00 16,4 12,1 - 16 9 - - S 0,0
23.09.2017 17:00:00 16,5 13,0 - 15 8 - - SE 0,0
23.09.2017 16:00:00 16,7 13,3 - 15 8 - - SSE 0,0
23.09.2017 15:00:00 16,6 13,3 - 13 7 - - SE 0,0
23.09.2017 14:00:00 16,1 13,1 - 16 9 - - SE 0,0
23.09.2017 13:00:00 16,1 12,5 - 16 9 - - ESE 0,0
23.09.2017 12:00:00 15,2 11,6 - 21 11 - - SE 0,0
23.09.2017 11:00:00 15,2 11,0 - 22 12 52 28 ESE 0,0
23.09.2017 10:00:00 15,1 11,0 12,7 24 13 - - ESE 0,0
23.09.2017 09:00:00 14,4 11,1 - 16 9 - - ESE 0,0
23.09.2017 08:00:00 12,9 10,5 - 13 7 - - ESE 0,0
23.09.2017 07:00:00 12,0 10,0 - 18 10 - - E 0,0
23.09.2017 06:00:00 11,7 10,0 - 13 7 - - ESE 0,0
23.09.2017 05:00:00 10,4 9,3 - 8 4 - - SE 0,2
23.09.2017 04:00:00 10,7 9,4 - 9 5 - - SE 0,0
23.09.2017 03:00:00 11,3 9,9 - 9 5 - - SE 0,0
23.09.2017 02:00:00 11,1 9,9 - 8 4 - - SSE 0,0
23.09.2017 01:00:00 11,7 10,3 - 11 6 - - SSE 0,0
23.09.2017 00:00:00 12,4 11,5 - 11 6 - - S 0,4
22.09.2017 23:00:00 13,0 12,4 - 11 6 - - WSW 2,0
22.09.2017 22:00:00 13,6 11,9 - 9 5 - - ESE 0,0
22.09.2017 21:00:00 13,6 11,2 - 13 7 - - ESE 0,0
22.09.2017 20:00:00 13,2 11,0 - 21 11 - - ESE 0,0
22.09.2017 19:00:00 13,2 11,2 - 16 9 - - ESE 0,0
22.09.2017 18:00:00 12,9 11,7 - 18 10 - - ESE 0,4
22.09.2017 17:00:00 12,9 11,6 - 15 8 - - ESE 0,4
22.09.2017 16:00:00 13,2 11,4 - 18 10 - - ESE 0,2
22.09.2017 15:00:00 13,2 11,2 - 18 10 - - ESE 0,0
22.09.2017 14:00:00 12,3 11,0 - 21 11 - - ESE 0,4
22.09.2017 13:00:00 11,8 10,5 - 16 9 - - ESE 0,2
22.09.2017 12:00:00 11,9 9,7 - 16 9 - - ESE 0,4
22.09.2017 11:00:00 12,1 9,9 - 16 9 - - E 0,2
22.09.2017 10:00:00 11,9 8,8 12,7 15 8 - - ESE 0,0
22.09.2017 09:00:00 11,7 8,7 - 11 6 - - ESE 0,0
22.09.2017 08:00:00 11,0 8,3 - 9 5 - - ESE 0,0
22.09.2017 07:00:00 10,3 8,1 - 11 6 - - E 0,0
22.09.2017 06:00:00 10,2 8,3 - 15 8 - - E 0,0
22.09.2017 05:00:00 10,0 8,0 - 9 5 - - E 0,0
22.09.2017 04:00:00 10,1 7,8 - 13 7 - - ESE 0,0
22.09.2017 03:00:00 10,1 7,6 - 9 5 - - ESE 0,0
22.09.2017 02:00:00 9,6 6,9 - 15 8 - - SE 0,0
22.09.2017 01:00:00 9,5 7,2 - 15 8 - - SE 0,0
22.09.2017 00:00:00 9,8 7,3 - 13 7 - - SE 0,2
21.09.2017 23:00:00 10,0 7,3 - 15 8 - - SE 0,0
21.09.2017 22:00:00 8,9 7,3 - 2 1 - - E 0,0
21.09.2017 21:00:00 9,3 7,6 - 2 1 - - W 0,0
21.09.2017 20:00:00 10,4 7,4 - 8 4 - - SW 0,0
21.09.2017 19:00:00 12,1 8,0 - 8 4 - - SW 0,0
21.09.2017 18:00:00 14,8 9,4 - 13 7 - - W 0,0
21.09.2017 17:00:00 14,6 7,6 - 13 7 - - W 0,0
21.09.2017 16:00:00 15,5 9,2 - 21 11 - - W 0,0
21.09.2017 15:00:00 16,2 8,8 - 21 11 - - W 0,0
21.09.2017 14:00:00 16,8 9,9 - 21 11 - - W 0,0
21.09.2017 13:00:00 16,3 11,2 - 15 8 - - W 0,0
21.09.2017 12:00:00 13,7 9,9 - 9 5 - - WNW 0,0
21.09.2017 11:00:00 12,3 8,7 - 8 4 - - NNW 0,0
21.09.2017 10:00:00 11,6 9,6 13,0 4 2 - - N 0,0
21.09.2017 09:00:00 11,0 9,7 - 5 3 - - NNW 0,0
21.09.2017 08:00:00 10,6 9,2 - 4 2 - - N 0,4
21.09.2017 07:00:00 10,8 9,4 - 2 1 - - W 0,8
21.09.2017 06:00:00 11,6 8,3 - 9 5 - - NW 0,0
21.09.2017 05:00:00 11,5 9,2 - 9 5 - - NW 0,0
21.09.2017 04:00:00 11,3 9,6 - 8 4 - - W 0,0
21.09.2017 03:00:00 11,8 9,7 - 11 6 - - WNW 0,0
21.09.2017 02:00:00 11,6 10,3 - 11 6 - - W 0,0
21.09.2017 01:00:00 11,5 10,9 - 15 8 - - W 0,0
21.09.2017 00:00:00 11,5 11,0 - 8 4 - - W 0,4
20.09.2017 23:00:00 11,6 11,2 - 13 7 - - W 0,8
20.09.2017 22:00:00 11,6 11,0 - 11 6 - - W 0,8
20.09.2017 21:00:00 11,6 10,8 - 8 4 - - WNW 0,6
20.09.2017 20:00:00 11,9 11,1 - 4 2 - - NW 0,6
20.09.2017 19:00:00 12,2 11,7 - 9 5 - - W 0,8
20.09.2017 18:00:00 12,4 11,5 - 4 2 - - WNW 1,0
20.09.2017 17:00:00 12,5 11,9 - 8 4 - - W 1,8
20.09.2017 16:00:00 12,3 11,8 - 18 10 - - W 2,2
20.09.2017 15:00:00 13,0 12,6 - 16 9 - - W 1,2
20.09.2017 14:00:00 13,1 12,6 - 21 11 - - W 2,8
20.09.2017 13:00:00 14,9 14,3 - 5 3 - - SW 0,4
20.09.2017 12:00:00 14,9 14,2 - 8 4 - - S 1,0

tt = Température de l'air
td = dewpoint
tt -20cm = Température de l'air -20cm
ff = Vitesse du vent
fx = gusts
dd = Direction du vent
rr = Quantités de précipitations

stations d'obs. à proximité